Wolfs Crossroads, Pennsylvania
Current Conditions -  °F | °C
As of 10:56 AM on Thursday 29 Jan 2015 (Local Time) from KMDT Reporting Station
Overcast Overcast  
Wind Chill: 23°   Ceiling: 25000
Heat Index: 23°   Visibility: 8mi
Dew Point: 12°   Wind: 3mph
Humidity: 63%   Direction: 150°SSE
Pressure: 30.24"   Gusts: NA
Location:  40.2031°N, 77.2904°W
Report Text: KMDT 291556Z 15003KT 8SM FEW110 OVC250 M05/M11 A3024 RMK AO2 SLP246 T10501111
Loading
Personal Weather Stations






























Interactive Weather Map New forecast layout! Learn more

10-Day Weather Forecast

Advertisements
Track Severe Weather on mobile